Avinger, Texas
Current Conditions -  °F | °C
As of 4:35 AM on Saturday 22 Nov 2014 (Local Time) from KOSA Reporting Station
Overcast Overcast  
Wind Chill: 56°   Ceiling: 7000
Heat Index: 56°   Visibility: 10mi
Dew Point: 53°   Wind: 8mph
Humidity: 89%   Direction: 140°SE
Pressure: 30.15"   Gusts: NA
Location:  32.9°N, 94.56°W
Report Text: KOSA 221035Z AUTO 14007KT 10SM SCT024 BKN070 OVC090 14/12 A3015 RMK AO1 T01350118
Loading
Personal Weather Stations






























Interactive Weather Map New forecast layout! Learn more

10-Day Weather Forecast

Advertisements
Track Severe Weather on mobile